createdAt,value
2023-01-30T00:01:02.207Z,-2.54
2023-01-30T00:06:33.101Z,-2.50
2023-01-30T00:12:04.317Z,-2.47
2023-01-30T00:17:35.951Z,-2.53
2023-01-30T00:23:07.011Z,-2.59
2023-01-30T00:28:38.281Z,-2.63
2023-01-30T00:34:09.291Z,-2.62
2023-01-30T00:39:40.253Z,-2.57
2023-01-30T00:45:30.958Z,-2.54
2023-01-30T00:51:02.663Z,-2.57
2023-01-30T00:56:34.119Z,-2.54
2023-01-30T01:02:05.267Z,-2.48
2023-01-30T01:07:38.474Z,-2.47
2023-01-30T01:13:10.870Z,-2.42
2023-01-30T01:18:41.990Z,-2.44
2023-01-30T01:24:14.729Z,-2.45
2023-01-30T01:29:46.017Z,-2.46
2023-01-30T01:35:17.564Z,-2.47
2023-01-30T01:41:06.553Z,-2.47
2023-01-30T01:46:55.963Z,-2.47
2023-01-30T01:52:27.397Z,-2.49
2023-01-30T01:58:05.329Z,-2.52
2023-01-30T02:03:42.113Z,-2.53
2023-01-30T02:09:13.458Z,-2.53
2023-01-30T02:14:45.034Z,-2.56
2023-01-30T02:20:48.942Z,-2.63
2023-01-30T02:26:47.664Z,-2.65
2023-01-30T02:32:25.072Z,-2.61
2023-01-30T02:38:10.910Z,-2.59
2023-01-30T02:44:08.601Z,-2.59
2023-01-30T02:49:43.434Z,-2.59
2023-01-30T02:55:24.071Z,-2.60
2023-01-30T03:01:33.584Z,-2.61
2023-01-30T03:07:23.292Z,-2.65
2023-01-30T03:13:20.973Z,-2.68
2023-01-30T03:18:53.423Z,-2.72
2023-01-30T03:24:24.914Z,-2.73
2023-01-30T03:29:56.101Z,-2.72
2023-01-30T03:35:27.466Z,-2.68
2023-01-30T03:40:58.581Z,-2.68
2023-01-30T03:46:30.687Z,-2.69
2023-01-30T03:52:02.455Z,-2.69
2023-01-30T03:57:33.586Z,-2.72
2023-01-30T04:03:05.603Z,-2.72
2023-01-30T04:08:37.037Z,-2.74
2023-01-30T04:14:09.389Z,-2.76
2023-01-30T04:19:50.465Z,-2.74
2023-01-30T04:25:22.451Z,-2.72
2023-01-30T04:30:54.069Z,-2.73
2023-01-30T04:36:44.027Z,-2.68
2023-01-30T04:42:16.953Z,-2.70
2023-01-30T04:48:02.062Z,-2.71
2023-01-30T04:53:34.611Z,-2.69
2023-01-30T04:59:06.039Z,-2.70
2023-01-30T05:04:42.558Z,-2.70
2023-01-30T05:10:13.877Z,-2.70
2023-01-30T05:15:45.355Z,-2.68
2023-01-30T05:21:19.280Z,-2.68
2023-01-30T05:26:50.625Z,-2.66
2023-01-30T05:32:21.814Z,-2.65
2023-01-30T05:37:53.096Z,-2.61
2023-01-30T05:43:24.314Z,-2.58
2023-01-30T05:48:55.721Z,-2.55
2023-01-30T05:54:26.881Z,-2.54
2023-01-30T05:59:57.904Z,-2.52
2023-01-30T06:05:29.151Z,-2.51
2023-01-30T06:11:06.035Z,-2.49
2023-01-30T06:16:36.988Z,-2.46
2023-01-30T06:22:08.441Z,-2.45
2023-01-30T06:27:40.173Z,-2.44
2023-01-30T06:33:11.767Z,-2.44
2023-01-30T06:38:42.900Z,-2.44
2023-01-30T06:44:14.327Z,-2.41
2023-01-30T06:49:45.355Z,-2.41
2023-01-30T06:55:19.605Z,-2.40
2023-01-30T07:00:51.462Z,-2.41
2023-01-30T07:06:23.068Z,-2.42
2023-01-30T07:11:54.346Z,-2.39
2023-01-30T07:17:25.913Z,-2.37
2023-01-30T07:22:57.268Z,-2.33
2023-01-30T07:28:28.457Z,-2.30
2023-01-30T07:33:59.804Z,-2.27
2023-01-30T07:39:31.240Z,-2.24
2023-01-30T07:45:02.628Z,-2.20
2023-01-30T07:50:33.735Z,-2.18
2023-01-30T07:56:08.958Z,-2.15
2023-01-30T08:01:40.524Z,-2.13
2023-01-30T08:07:11.883Z,-2.12
2023-01-30T08:12:43.034Z,-2.12
2023-01-30T08:18:14.000Z,-2.09
2023-01-30T08:23:45.319Z,-2.07
2023-01-30T08:29:17.375Z,-2.04
2023-01-30T08:34:48.742Z,-2.03
2023-01-30T08:40:20.036Z,-2.00
2023-01-30T08:45:54.816Z,-1.96
2023-01-30T08:51:26.069Z,-1.91
2023-01-30T08:56:57.422Z,-1.85
2023-01-30T09:02:28.820Z,-1.81
2023-01-30T09:08:00.356Z,-1.78
2023-01-30T09:13:32.541Z,-1.75
2023-01-30T09:19:03.835Z,-1.76
2023-01-30T09:24:35.099Z,-1.75
2023-01-30T09:30:07.496Z,-1.74
2023-01-30T09:35:38.497Z,-1.72
2023-01-30T09:41:41.454Z,-1.70
2023-01-30T09:47:14.364Z,-1.70
2023-01-30T09:53:03.702Z,-1.68
2023-01-30T09:58:59.824Z,-1.67
2023-01-30T10:04:35.230Z,-1.67
2023-01-30T10:10:11.167Z,-1.64
2023-01-30T10:15:45.460Z,-1.63
2023-01-30T10:21:26.948Z,-1.62
2023-01-30T10:26:58.540Z,-1.64
2023-01-30T10:32:32.760Z,-1.63
2023-01-30T10:38:08.220Z,-1.61
2023-01-30T10:43:46.075Z,-1.58
2023-01-30T10:49:24.281Z,-1.57
2023-01-30T10:55:10.566Z,-1.53
2023-01-30T11:01:08.544Z,-1.52
2023-01-30T11:06:39.630Z,-1.52
2023-01-30T11:12:11.505Z,-1.52
2023-01-30T11:17:43.319Z,-1.51
2023-01-30T11:23:35.727Z,-1.48
2023-01-30T11:29:32.894Z,-1.41
2023-01-30T11:35:07.094Z,-1.37
2023-01-30T11:40:40.781Z,-1.32
2023-01-30T11:46:13.575Z,-1.30
2023-01-30T11:51:46.719Z,-1.28
2023-01-30T11:57:19.639Z,-1.26
2023-01-30T12:02:53.418Z,-1.23
2023-01-30T12:08:42.733Z,-1.20
2023-01-30T12:14:36.779Z,-1.17
2023-01-30T12:20:20.088Z,-1.14
2023-01-30T12:26:21.323Z,-1.09
2023-01-30T12:32:11.960Z,-1.06
2023-01-30T12:37:43.424Z,-1.02
2023-01-30T12:43:39.321Z,-1.01
2023-01-30T12:49:28.755Z,-0.97
2023-01-30T12:55:41.496Z,-0.95
2023-01-30T13:01:29.962Z,-0.93
2023-01-30T13:07:16.320Z,-0.90
2023-01-30T13:13:09.265Z,-0.85
2023-01-30T13:18:45.865Z,-0.80
2023-01-30T13:24:25.270Z,-0.78
2023-01-30T13:29:58.420Z,-0.79
2023-01-30T13:35:33.879Z,-0.78
2023-01-30T13:41:05.935Z,-0.74
2023-01-30T13:46:38.552Z,-0.75
2023-01-30T13:52:19.059Z,-0.73
2023-01-30T13:57:51.154Z,-0.70
2023-01-30T14:03:33.302Z,-0.71
2023-01-30T14:09:29.815Z,-0.71
2023-01-30T14:15:29.286Z,-0.70
2023-01-30T14:21:14.088Z,-0.71
2023-01-30T14:26:48.773Z,-0.71
2023-01-30T14:32:19.971Z,-0.67
2023-01-30T14:37:52.144Z,-0.71
2023-01-30T14:43:26.061Z,-0.70
2023-01-30T14:49:07.088Z,-0.71
2023-01-30T14:54:42.952Z,-0.72
2023-01-30T15:00:21.933Z,-0.69
2023-01-30T15:05:53.132Z,-0.68
2023-01-30T15:11:29.099Z,-0.70
2023-01-30T15:17:05.857Z,-0.70
2023-01-30T15:23:16.388Z,-0.68
2023-01-30T15:29:22.488Z,-0.67
2023-01-30T15:35:03.086Z,-0.63
2023-01-30T15:40:34.441Z,-0.63
2023-01-30T15:46:08.859Z,-0.65
2023-01-30T15:51:40.359Z,-0.65
2023-01-30T15:57:18.368Z,-0.63
2023-01-30T16:02:49.864Z,-0.64
2023-01-30T16:08:29.288Z,-0.62
2023-01-30T16:14:00.749Z,-0.63
2023-01-30T16:19:37.951Z,-0.64
2023-01-30T16:25:18.617Z,-0.63
2023-01-30T16:31:01.059Z,-0.63
2023-01-30T16:36:38.850Z,-0.60
2023-01-30T16:42:23.738Z,-0.61
2023-01-30T16:47:55.058Z,-0.61
2023-01-30T16:53:31.326Z,-0.61
2023-01-30T16:59:02.609Z,-0.62
2023-01-30T17:04:34.500Z,-0.61
2023-01-30T17:10:05.849Z,-0.60
2023-01-30T17:15:37.799Z,-0.58
2023-01-30T17:21:12.923Z,-0.59
2023-01-30T17:26:45.595Z,-0.59
2023-01-30T17:32:17.072Z,-0.59
2023-01-30T17:37:59.721Z,-0.60
2023-01-30T17:43:35.439Z,-0.57
2023-01-30T17:49:07.472Z,-0.57
2023-01-30T17:54:38.799Z,-0.58
2023-01-30T18:00:16.165Z,-0.57
2023-01-30T18:05:47.270Z,-0.54
2023-01-30T18:11:20.304Z,-0.54
2023-01-30T18:16:52.718Z,-0.57
2023-01-30T18:22:24.427Z,-0.57
2023-01-30T18:27:55.444Z,-0.54
2023-01-30T18:33:26.563Z,-0.55
2023-01-30T18:38:57.797Z,-0.53
2023-01-30T18:44:29.063Z,-0.53
2023-01-30T18:50:00.008Z,-0.50
2023-01-30T18:55:31.439Z,-0.50
2023-01-30T19:01:14.423Z,-0.48
2023-01-30T19:06:46.104Z,-0.44
2023-01-30T19:12:36.216Z,-0.46
2023-01-30T19:18:07.358Z,-0.45
2023-01-30T19:23:39.122Z,-0.44
2023-01-30T19:29:10.451Z,-0.44
2023-01-30T19:34:41.473Z,-0.42
2023-01-30T19:40:12.822Z,-0.42
2023-01-30T19:45:43.924Z,-0.40
2023-01-30T19:51:24.298Z,-0.41
2023-01-30T19:56:55.716Z,-0.42
2023-01-30T20:02:31.608Z,-0.42
2023-01-30T20:08:03.037Z,-0.40
2023-01-30T20:13:38.368Z,-0.39
2023-01-30T20:19:14.311Z,-0.38
2023-01-30T20:24:45.402Z,-0.39
2023-01-30T20:30:17.433Z,-0.38
2023-01-30T20:35:49.177Z,-0.38
2023-01-30T20:41:22.723Z,-0.38
2023-01-30T20:46:53.899Z,-0.37
2023-01-30T20:52:25.413Z,-0.36
2023-01-30T20:57:56.380Z,-0.35
2023-01-30T21:03:27.766Z,-0.35
2023-01-30T21:08:59.343Z,-0.35
2023-01-30T21:14:30.503Z,-0.38
2023-01-30T21:20:01.525Z,-0.42
2023-01-30T21:25:32.576Z,-0.44
2023-01-30T21:31:15.685Z,-0.46
2023-01-30T21:37:07.389Z,-0.47
2023-01-30T21:42:57.511Z,-0.48
2023-01-30T21:48:28.981Z,-0.49
2023-01-30T21:54:03.760Z,-0.49
2023-01-30T21:59:35.330Z,-0.49
2023-01-30T22:05:07.270Z,-0.49
2023-01-30T22:10:38.684Z,-0.49
2023-01-30T22:16:12.176Z,-0.50
2023-01-30T22:21:43.036Z,-0.50
2023-01-30T22:27:16.499Z,-0.50
2023-01-30T22:32:47.595Z,-0.49
2023-01-30T22:38:20.399Z,-0.50
2023-01-30T22:43:55.535Z,-0.50
2023-01-30T22:49:26.774Z,-0.49
2023-01-30T22:54:57.918Z,-0.49
2023-01-30T23:00:28.911Z,-0.50
2023-01-30T23:06:02.006Z,-0.48
2023-01-30T23:11:39.089Z,-0.48
2023-01-30T23:17:29.045Z,-0.47
2023-01-30T23:23:00.291Z,-0.46
2023-01-30T23:28:31.773Z,-0.46
2023-01-30T23:34:06.455Z,-0.46
2023-01-30T23:39:37.679Z,-0.45
2023-01-30T23:45:09.477Z,-0.45
2023-01-30T23:50:42.309Z,-0.45
2023-01-30T23:56:14.857Z,-0.44
